sensor_id;sensor_type;location;lat;lon;timestamp;temperature;humidity
62339;DHT22;48368;53.406;6.214;2023-06-10T00:00:24;15.00;99.90
62339;DHT22;48368;53.406;6.214;2023-06-10T00:02:49;15.00;99.90
62339;DHT22;48368;53.406;6.214;2023-06-10T00:05:15;15.00;99.90
62339;DHT22;48368;53.406;6.214;2023-06-10T00:07:41;14.90;99.90
62339;DHT22;48368;53.406;6.214;2023-06-10T00:10:07;14.90;99.90
62339;DHT22;48368;53.406;6.214;2023-06-10T00:12:34;15.00;99.90
62339;DHT22;48368;53.406;6.214;2023-06-10T00:15:05;14.90;99.90
62339;DHT22;48368;53.406;6.214;2023-06-10T00:17:31;14.90;99.90
62339;DHT22;48368;53.406;6.214;2023-06-10T00:19:58;14.90;99.90
62339;DHT22;48368;53.406;6.214;2023-06-10T00:22:25;14.80;99.90
62339;DHT22;48368;53.406;6.214;2023-06-10T00:24:55;14.80;99.90
62339;DHT22;48368;53.406;6.214;2023-06-10T00:27:22;14.80;99.90
62339;DHT22;48368;53.406;6.214;2023-06-10T00:29:47;14.80;99.90
62339;DHT22;48368;53.406;6.214;2023-06-10T00:32:13;14.80;99.90
62339;DHT22;48368;53.406;6.214;2023-06-10T00:34:39;14.70;99.90
62339;DHT22;48368;53.406;6.214;2023-06-10T00:37:05;14.70;99.90
62339;DHT22;48368;53.406;6.214;2023-06-10T00:39:30;14.70;99.90
62339;DHT22;48368;53.406;6.214;2023-06-10T00:41:56;14.70;99.90
62339;DHT22;48368;53.406;6.214;2023-06-10T00:44:22;14.70;99.90
62339;DHT22;48368;53.406;6.214;2023-06-10T00:46:47;14.60;99.90
62339;DHT22;48368;53.406;6.214;2023-06-10T00:49:15;14.60;99.90
62339;DHT22;48368;53.406;6.214;2023-06-10T00:51:42;14.60;99.90
62339;DHT22;48368;53.406;6.214;2023-06-10T00:54:08;14.60;99.90
62339;DHT22;48368;53.406;6.214;2023-06-10T00:56:35;14.60;99.90
62339;DHT22;48368;53.406;6.214;2023-06-10T00:59:00;14.60;99.90
62339;DHT22;48368;53.406;6.214;2023-06-10T01:01:26;14.60;99.90
62339;DHT22;48368;53.406;6.214;2023-06-10T01:03:52;14.50;99.90
62339;DHT22;48368;53.406;6.214;2023-06-10T01:09:11;14.50;99.90
62339;DHT22;48368;53.406;6.214;2023-06-10T01:11:46;14.50;99.90
62339;DHT22;48368;53.406;6.214;2023-06-10T01:14:13;14.50;99.90
62339;DHT22;48368;53.406;6.214;2023-06-10T01:16:39;14.50;99.90
62339;DHT22;48368;53.406;6.214;2023-06-10T01:19:06;14.50;99.90
62339;DHT22;48368;53.406;6.214;2023-06-10T01:21:33;14.40;99.90
62339;DHT22;48368;53.406;6.214;2023-06-10T01:24:00;14.50;99.90
62339;DHT22;48368;53.406;6.214;2023-06-10T01:26:30;14.50;99.90
62339;DHT22;48368;53.406;6.214;2023-06-10T01:29:03;14.40;99.90
62339;DHT22;48368;53.406;6.214;2023-06-10T01:31:43;14.40;99.90
62339;DHT22;48368;53.406;6.214;2023-06-10T01:34:13;14.40;99.90
62339;DHT22;48368;53.406;6.214;2023-06-10T01:36:41;14.50;99.90
62339;DHT22;48368;53.406;6.214;2023-06-10T01:39:09;14.40;99.90
62339;DHT22;48368;53.406;6.214;2023-06-10T01:41:37;14.40;99.90
62339;DHT22;48368;53.406;6.214;2023-06-10T01:44:03;14.40;99.90
62339;DHT22;48368;53.406;6.214;2023-06-10T01:46:29;14.40;99.90
62339;DHT22;48368;53.406;6.214;2023-06-10T01:48:55;14.40;99.90
62339;DHT22;48368;53.406;6.214;2023-06-10T01:51:21;14.40;99.90
62339;DHT22;48368;53.406;6.214;2023-06-10T01:53:47;14.40;99.90
62339;DHT22;48368;53.406;6.214;2023-06-10T01:56:12;14.40;99.90
62339;DHT22;48368;53.406;6.214;2023-06-10T01:58:43;14.40;99.90
62339;DHT22;48368;53.406;6.214;2023-06-10T02:01:09;14.40;99.90
62339;DHT22;48368;53.406;6.214;2023-06-10T02:03:35;14.40;99.90
62339;DHT22;48368;53.406;6.214;2023-06-10T02:06:00;14.30;99.90
62339;DHT22;48368;53.406;6.214;2023-06-10T02:08:26;14.30;99.90
62339;DHT22;48368;53.406;6.214;2023-06-10T02:10:53;14.30;99.90
62339;DHT22;48368;53.406;6.214;2023-06-10T02:13:19;14.20;99.90
62339;DHT22;48368;53.406;6.214;2023-06-10T02:15:44;14.20;99.90
62339;DHT22;48368;53.406;6.214;2023-06-10T02:18:11;14.10;99.90
62339;DHT22;48368;53.406;6.214;2023-06-10T02:20:37;14.10;99.90
62339;DHT22;48368;53.406;6.214;2023-06-10T02:23:05;14.10;99.90
62339;DHT22;48368;53.406;6.214;2023-06-10T02:25:31;14.00;99.90
62339;DHT22;48368;53.406;6.214;2023-06-10T02:27:56;14.00;99.90
62339;DHT22;48368;53.406;6.214;2023-06-10T02:30:22;14.00;99.90
62339;DHT22;48368;53.406;6.214;2023-06-10T02:32:48;14.00;99.90
62339;DHT22;48368;53.406;6.214;2023-06-10T02:35:16;14.00;99.90
62339;DHT22;48368;53.406;6.214;2023-06-10T02:37:43;13.90;99.90
62339;DHT22;48368;53.406;6.214;2023-06-10T02:40:09;13.90;99.90
62339;DHT22;48368;53.406;6.214;2023-06-10T02:42:35;14.00;99.90
62339;DHT22;48368;53.406;6.214;2023-06-10T02:45:01;13.90;99.90
62339;DHT22;48368;53.406;6.214;2023-06-10T02:47:27;14.00;99.90
62339;DHT22;48368;53.406;6.214;2023-06-10T02:49:53;14.00;99.90
62339;DHT22;48368;53.406;6.214;2023-06-10T02:52:18;14.00;99.90
62339;DHT22;48368;53.406;6.214;2023-06-10T02:54:44;13.90;99.90
62339;DHT22;48368;53.406;6.214;2023-06-10T02:57:11;13.90;99.90
62339;DHT22;48368;53.406;6.214;2023-06-10T02:59:36;13.90;99.90
62339;DHT22;48368;53.406;6.214;2023-06-10T03:02:02;13.90;99.90
62339;DHT22;48368;53.406;6.214;2023-06-10T03:04:28;14.00;99.90
62339;DHT22;48368;53.406;6.214;2023-06-10T03:06:54;13.90;99.90
62339;DHT22;48368;53.406;6.214;2023-06-10T03:09:20;13.90;99.90
62339;DHT22;48368;53.406;6.214;2023-06-10T03:11:46;13.90;99.90
62339;DHT22;48368;53.406;6.214;2023-06-10T03:14:11;13.90;99.90
62339;DHT22;48368;53.406;6.214;2023-06-10T03:16:37;13.90;99.90
62339;DHT22;48368;53.406;6.214;2023-06-10T03:19:06;13.90;99.90
62339;DHT22;48368;53.406;6.214;2023-06-10T03:21:36;13.90;99.90
62339;DHT22;48368;53.406;6.214;2023-06-10T03:24:04;13.90;99.90
62339;DHT22;48368;53.406;6.214;2023-06-10T03:26:30;13.80;99.90
62339;DHT22;48368;53.406;6.214;2023-06-10T03:28:56;13.80;99.90
62339;DHT22;48368;53.406;6.214;2023-06-10T03:31:21;13.80;99.90
62339;DHT22;48368;53.406;6.214;2023-06-10T03:33:47;13.80;99.90
62339;DHT22;48368;53.406;6.214;2023-06-10T03:36:13;13.80;99.90
62339;DHT22;48368;53.406;6.214;2023-06-10T03:38:38;13.80;99.90
62339;DHT22;48368;53.406;6.214;2023-06-10T03:41:04;13.80;99.90
62339;DHT22;48368;53.406;6.214;2023-06-10T03:43:30;13.80;99.90
62339;DHT22;48368;53.406;6.214;2023-06-10T03:45:56;13.70;99.90
62339;DHT22;48368;53.406;6.214;2023-06-10T03:48:22;13.70;99.90
62339;DHT22;48368;53.406;6.214;2023-06-10T03:50:48;13.80;99.90
62339;DHT22;48368;53.406;6.214;2023-06-10T03:53:16;13.70;99.90
62339;DHT22;48368;53.406;6.214;2023-06-10T03:55:42;13.80;99.90
62339;DHT22;48368;53.406;6.214;2023-06-10T03:58:07;13.80;99.90
62339;DHT22;48368;53.406;6.214;2023-06-10T04:00:33;13.80;99.90
62339;DHT22;48368;53.406;6.214;2023-06-10T04:03:07;13.80;99.90
62339;DHT22;48368;53.406;6.214;2023-06-10T04:05:34;13.80;99.90
62339;DHT22;48368;53.406;6.214;2023-06-10T04:08:00;13.90;99.90
62339;DHT22;48368;53.406;6.214;2023-06-10T04:10:27;14.00;99.90
62339;DHT22;48368;53.406;6.214;2023-06-10T04:12:52;14.10;99.90
62339;DHT22;48368;53.406;6.214;2023-06-10T04:15:18;14.20;99.90
62339;DHT22;48368;53.406;6.214;2023-06-10T04:17:43;14.30;99.90
62339;DHT22;48368;53.406;6.214;2023-06-10T04:20:09;14.40;99.90
62339;DHT22;48368;53.406;6.214;2023-06-10T04:22:36;14.50;99.90
62339;DHT22;48368;53.406;6.214;2023-06-10T04:25:02;14.50;99.90
62339;DHT22;48368;53.406;6.214;2023-06-10T04:27:29;14.50;99.90
62339;DHT22;48368;53.406;6.214;2023-06-10T04:29:54;14.60;99.90
62339;DHT22;48368;53.406;6.214;2023-06-10T04:32:20;14.50;99.90
62339;DHT22;48368;53.406;6.214;2023-06-10T04:34:46;14.60;99.90
62339;DHT22;48368;53.406;6.214;2023-06-10T04:37:12;14.70;99.90
62339;DHT22;48368;53.406;6.214;2023-06-10T04:39:38;14.80;99.90
62339;DHT22;48368;53.406;6.214;2023-06-10T04:42:04;14.90;99.90
62339;DHT22;48368;53.406;6.214;2023-06-10T04:44:31;14.90;99.90
62339;DHT22;48368;53.406;6.214;2023-06-10T04:46:56;14.80;99.90
62339;DHT22;48368;53.406;6.214;2023-06-10T04:49:22;14.90;99.90
62339;DHT22;48368;53.406;6.214;2023-06-10T04:51:47;15.00;99.90
62339;DHT22;48368;53.406;6.214;2023-06-10T04:54:13;15.20;99.90
62339;DHT22;48368;53.406;6.214;2023-06-10T04:56:39;15.10;99.90
62339;DHT22;48368;53.406;6.214;2023-06-10T04:59:05;15.20;99.90
62339;DHT22;48368;53.406;6.214;2023-06-10T05:01:30;15.20;99.90
62339;DHT22;48368;53.406;6.214;2023-06-10T05:03:56;15.20;99.90
62339;DHT22;48368;53.406;6.214;2023-06-10T05:06:22;15.30;99.90
62339;DHT22;48368;53.406;6.214;2023-06-10T05:08:47;15.40;99.90
62339;DHT22;48368;53.406;6.214;2023-06-10T05:11:13;15.40;99.90
62339;DHT22;48368;53.406;6.214;2023-06-10T05:13:38;15.50;99.90
62339;DHT22;48368;53.406;6.214;2023-06-10T05:16:05;15.40;99.90
62339;DHT22;48368;53.406;6.214;2023-06-10T05:18:32;15.40;99.90
62339;DHT22;48368;53.406;6.214;2023-06-10T05:20:57;15.50;99.90
62339;DHT22;48368;53.406;6.214;2023-06-10T05:23:25;15.70;99.90
62339;DHT22;48368;53.406;6.214;2023-06-10T05:25:50;15.80;99.90
62339;DHT22;48368;53.406;6.214;2023-06-10T05:28:16;16.00;99.90
62339;DHT22;48368;53.406;6.214;2023-06-10T05:30:41;16.10;99.90
62339;DHT22;48368;53.406;6.214;2023-06-10T05:33:07;16.20;99.90
62339;DHT22;48368;53.406;6.214;2023-06-10T05:35:33;16.20;99.90
62339;DHT22;48368;53.406;6.214;2023-06-10T05:37:58;16.10;99.90
62339;DHT22;48368;53.406;6.214;2023-06-10T05:40:24;16.20;99.90
62339;DHT22;48368;53.406;6.214;2023-06-10T05:42:50;16.30;99.90
62339;DHT22;48368;53.406;6.214;2023-06-10T05:45:15;16.60;99.90
62339;DHT22;48368;53.406;6.214;2023-06-10T05:47:41;16.70;99.90
62339;DHT22;48368;53.406;6.214;2023-06-10T05:50:07;16.70;99.90
62339;DHT22;48368;53.406;6.214;2023-06-10T05:52:34;16.70;99.90
62339;DHT22;48368;53.406;6.214;2023-06-10T05:55:00;16.70;99.90
62339;DHT22;48368;53.406;6.214;2023-06-10T05:57:26;16.80;99.90
62339;DHT22;48368;53.406;6.214;2023-06-10T05:59:52;16.80;99.90
62339;DHT22;48368;53.406;6.214;2023-06-10T06:02:17;17.10;99.90
62339;DHT22;48368;53.406;6.214;2023-06-10T06:04:43;17.30;99.90
62339;DHT22;48368;53.406;6.214;2023-06-10T06:07:09;17.40;99.90
62339;DHT22;48368;53.406;6.214;2023-06-10T06:09:35;17.60;99.90
62339;DHT22;48368;53.406;6.214;2023-06-10T06:12:00;17.70;99.90
62339;DHT22;48368;53.406;6.214;2023-06-10T06:14:26;17.80;99.90
62339;DHT22;48368;53.406;6.214;2023-06-10T06:16:52;17.80;99.90
62339;DHT22;48368;53.406;6.214;2023-06-10T06:19:17;17.90;99.90
62339;DHT22;48368;53.406;6.214;2023-06-10T06:21:43;17.90;99.90
62339;DHT22;48368;53.406;6.214;2023-06-10T06:24:09;17.90;99.90
62339;DHT22;48368;53.406;6.214;2023-06-10T06:26:34;17.70;99.90
62339;DHT22;48368;53.406;6.214;2023-06-10T06:29:00;18.00;99.90
62339;DHT22;48368;53.406;6.214;2023-06-10T06:31:26;17.90;99.90
62339;DHT22;48368;53.406;6.214;2023-06-10T06:33:51;18.20;99.90
62339;DHT22;48368;53.406;6.214;2023-06-10T06:36:17;18.40;99.90
62339;DHT22;48368;53.406;6.214;2023-06-10T06:38:42;18.50;99.90
62339;DHT22;48368;53.406;6.214;2023-06-10T06:41:08;18.60;99.90
62339;DHT22;48368;53.406;6.214;2023-06-10T06:43:34;18.70;99.90
62339;DHT22;48368;53.406;6.214;2023-06-10T06:46:00;18.70;99.90
62339;DHT22;48368;53.406;6.214;2023-06-10T06:48:25;18.70;99.90
62339;DHT22;48368;53.406;6.214;2023-06-10T06:50:51;18.40;99.90
62339;DHT22;48368;53.406;6.214;2023-06-10T06:53:17;18.70;99.90
62339;DHT22;48368;53.406;6.214;2023-06-10T06:55:42;18.80;99.90
62339;DHT22;48368;53.406;6.214;2023-06-10T06:58:08;19.00;99.90
62339;DHT22;48368;53.406;6.214;2023-06-10T07:00:34;18.80;99.90
62339;DHT22;48368;53.406;6.214;2023-06-10T07:03:00;19.10;99.90
62339;DHT22;48368;53.406;6.214;2023-06-10T07:05:25;18.90;99.90
62339;DHT22;48368;53.406;6.214;2023-06-10T07:07:54;18.90;99.90
62339;DHT22;48368;53.406;6.214;2023-06-10T07:10:24;19.30;99.90
62339;DHT22;48368;53.406;6.214;2023-06-10T07:12:51;19.40;99.90
62339;DHT22;48368;53.406;6.214;2023-06-10T07:15:16;19.00;99.90
62339;DHT22;48368;53.406;6.214;2023-06-10T07:17:43;19.30;99.90
62339;DHT22;48368;53.406;6.214;2023-06-10T07:20:08;19.40;99.90
62339;DHT22;48368;53.406;6.214;2023-06-10T07:22:34;18.90;99.90
62339;DHT22;48368;53.406;6.214;2023-06-10T07:25:00;19.10;99.90
62339;DHT22;48368;53.406;6.214;2023-06-10T07:27:26;19.30;99.90
62339;DHT22;48368;53.406;6.214;2023-06-10T07:29:52;19.60;99.90
62339;DHT22;48368;53.406;6.214;2023-06-10T07:32:18;19.70;99.90
62339;DHT22;48368;53.406;6.214;2023-06-10T07:34:46;19.70;99.90
62339;DHT22;48368;53.406;6.214;2023-06-10T07:37:11;19.90;99.90
62339;DHT22;48368;53.406;6.214;2023-06-10T07:39:37;20.00;99.90
62339;DHT22;48368;53.406;6.214;2023-06-10T07:42:03;19.60;99.90
62339;DHT22;48368;53.406;6.214;2023-06-10T07:44:28;19.60;99.90
62339;DHT22;48368;53.406;6.214;2023-06-10T07:46:54;19.60;99.90
62339;DHT22;48368;53.406;6.214;2023-06-10T07:49:20;19.60;99.90
62339;DHT22;48368;53.406;6.214;2023-06-10T07:51:45;19.90;99.90
62339;DHT22;48368;53.406;6.214;2023-06-10T07:54:11;19.70;99.90
62339;DHT22;48368;53.406;6.214;2023-06-10T07:56:38;19.60;99.90
62339;DHT22;48368;53.406;6.214;2023-06-10T07:59:03;19.70;99.90
62339;DHT22;48368;53.406;6.214;2023-06-10T08:01:29;19.70;99.90
62339;DHT22;48368;53.406;6.214;2023-06-10T08:03:55;20.00;99.90
62339;DHT22;48368;53.406;6.214;2023-06-10T08:06:21;20.10;99.90
62339;DHT22;48368;53.406;6.214;2023-06-10T08:08:46;20.00;99.90
62339;DHT22;48368;53.406;6.214;2023-06-10T08:11:13;20.10;99.90
62339;DHT22;48368;53.406;6.214;2023-06-10T08:13:39;20.40;99.90
62339;DHT22;48368;53.406;6.214;2023-06-10T08:16:05;20.50;99.90
62339;DHT22;48368;53.406;6.214;2023-06-10T08:18:31;20.10;99.90
62339;DHT22;48368;53.406;6.214;2023-06-10T08:20:57;20.40;99.90
62339;DHT22;48368;53.406;6.214;2023-06-10T08:23:24;20.50;99.90
62339;DHT22;48368;53.406;6.214;2023-06-10T08:25:52;20.60;99.90
62339;DHT22;48368;53.406;6.214;2023-06-10T08:28:18;20.90;99.90
62339;DHT22;48368;53.406;6.214;2023-06-10T08:30:44;20.70;99.90
62339;DHT22;48368;53.406;6.214;2023-06-10T08:33:10;20.60;99.90
62339;DHT22;48368;53.406;6.214;2023-06-10T08:35:36;20.60;99.90
62339;DHT22;48368;53.406;6.214;2023-06-10T08:38:01;20.60;99.90
62339;DHT22;48368;53.406;6.214;2023-06-10T08:40:27;20.60;99.90
62339;DHT22;48368;53.406;6.214;2023-06-10T08:43:17;20.90;99.90
62339;DHT22;48368;53.406;6.214;2023-06-10T08:45:43;20.60;99.90
62339;DHT22;48368;53.406;6.214;2023-06-10T08:48:10;20.80;99.90
62339;DHT22;48368;53.406;6.214;2023-06-10T08:50:38;20.90;99.90
62339;DHT22;48368;53.406;6.214;2023-06-10T08:53:07;21.00;99.90
62339;DHT22;48368;53.406;6.214;2023-06-10T08:55:36;20.80;99.90
62339;DHT22;48368;53.406;6.214;2023-06-10T08:58:03;21.30;99.90
62339;DHT22;48368;53.406;6.214;2023-06-10T09:00:30;21.00;99.90
62339;DHT22;48368;53.406;6.214;2023-06-10T09:02:57;21.10;99.90
62339;DHT22;48368;53.406;6.214;2023-06-10T09:05:23;21.30;99.90
62339;DHT22;48368;53.406;6.214;2023-06-10T09:07:52;21.40;99.90
62339;DHT22;48368;53.406;6.214;2023-06-10T09:10:17;21.20;99.90
62339;DHT22;48368;53.406;6.214;2023-06-10T09:12:43;21.40;99.90
62339;DHT22;48368;53.406;6.214;2023-06-10T09:15:09;21.40;99.90
62339;DHT22;48368;53.406;6.214;2023-06-10T09:17:37;21.50;99.90
62339;DHT22;48368;53.406;6.214;2023-06-10T09:20:04;21.80;99.90
62339;DHT22;48368;53.406;6.214;2023-06-10T09:22:30;21.30;99.90
62339;DHT22;48368;53.406;6.214;2023-06-10T09:25:06;21.70;99.90
62339;DHT22;48368;53.406;6.214;2023-06-10T09:27:32;21.50;99.90
62339;DHT22;48368;53.406;6.214;2023-06-10T09:29:58;21.70;99.90
62339;DHT22;48368;53.406;6.214;2023-06-10T09:32:24;21.70;99.90
62339;DHT22;48368;53.406;6.214;2023-06-10T09:34:50;21.40;99.90
62339;DHT22;48368;53.406;6.214;2023-06-10T09:37:25;21.80;99.90
62339;DHT22;48368;53.406;6.214;2023-06-10T09:40:05;21.50;99.90
62339;DHT22;48368;53.406;6.214;2023-06-10T09:42:35;21.50;99.90
62339;DHT22;48368;53.406;6.214;2023-06-10T09:45:02;21.80;99.90
62339;DHT22;48368;53.406;6.214;2023-06-10T09:47:28;21.40;99.90
62339;DHT22;48368;53.406;6.214;2023-06-10T09:49:54;21.30;99.90
62339;DHT22;48368;53.406;6.214;2023-06-10T09:52:28;21.10;99.90
62339;DHT22;48368;53.406;6.214;2023-06-10T09:54:59;21.20;99.90
62339;DHT22;48368;53.406;6.214;2023-06-10T09:57:26;21.50;99.90
62339;DHT22;48368;53.406;6.214;2023-06-10T09:59:55;21.70;99.90
62339;DHT22;48368;53.406;6.214;2023-06-10T10:02:21;21.80;99.90
62339;DHT22;48368;53.406;6.214;2023-06-10T10:04:47;21.60;99.90
62339;DHT22;48368;53.406;6.214;2023-06-10T10:07:13;21.40;99.90
62339;DHT22;48368;53.406;6.214;2023-06-10T10:09:40;21.70;99.90
62339;DHT22;48368;53.406;6.214;2023-06-10T10:12:16;21.80;99.90
62339;DHT22;48368;53.406;6.214;2023-06-10T10:14:46;22.20;99.90
62339;DHT22;48368;53.406;6.214;2023-06-10T10:17:14;22.10;99.90
62339;DHT22;48368;53.406;6.214;2023-06-10T10:19:50;21.80;99.90
62339;DHT22;48368;53.406;6.214;2023-06-10T10:22:25;22.00;99.90
62339;DHT22;48368;53.406;6.214;2023-06-10T10:24:56;21.90;99.90
62339;DHT22;48368;53.406;6.214;2023-06-10T10:27:28;22.00;99.90
62339;DHT22;48368;53.406;6.214;2023-06-10T10:29:58;21.80;99.90
62339;DHT22;48368;53.406;6.214;2023-06-10T10:32:32;21.50;99.90
62339;DHT22;48368;53.406;6.214;2023-06-10T10:35:14;21.40;99.90
62339;DHT22;48368;53.406;6.214;2023-06-10T10:37:42;21.30;99.90
62339;DHT22;48368;53.406;6.214;2023-06-10T10:40:08;21.30;99.90
62339;DHT22;48368;53.406;6.214;2023-06-10T10:42:35;21.40;99.90
62339;DHT22;48368;53.406;6.214;2023-06-10T10:45:02;21.30;99.90
62339;DHT22;48368;53.406;6.214;2023-06-10T10:47:30;21.50;99.90
62339;DHT22;48368;53.406;6.214;2023-06-10T10:49:56;21.60;99.90
62339;DHT22;48368;53.406;6.214;2023-06-10T10:52:25;21.90;99.90
62339;DHT22;48368;53.406;6.214;2023-06-10T10:54:53;21.60;99.90
62339;DHT22;48368;53.406;6.214;2023-06-10T10:57:23;21.70;99.90
62339;DHT22;48368;53.406;6.214;2023-06-10T11:02:19;22.30;99.90
62339;DHT22;48368;53.406;6.214;2023-06-10T11:04:57;22.40;99.90
62339;DHT22;48368;53.406;6.214;2023-06-10T11:07:25;21.90;99.90
62339;DHT22;48368;53.406;6.214;2023-06-10T11:10:02;21.70;99.90
62339;DHT22;48368;53.406;6.214;2023-06-10T11:15:11;21.60;99.90
62339;DHT22;48368;53.406;6.214;2023-06-10T11:17:36;21.30;99.90
62339;DHT22;48368;53.406;6.214;2023-06-10T11:20:02;21.40;99.90
62339;DHT22;48368;53.406;6.214;2023-06-10T11:22:28;21.70;99.90
62339;DHT22;48368;53.406;6.214;2023-06-10T11:24:57;21.40;99.90
62339;DHT22;48368;53.406;6.214;2023-06-10T11:27:24;21.40;99.90
62339;DHT22;48368;53.406;6.214;2023-06-10T11:30:19;21.30;99.90
62339;DHT22;48368;53.406;6.214;2023-06-10T11:32:50;21.30;99.90
62339;DHT22;48368;53.406;6.214;2023-06-10T11:35:18;21.00;99.90
62339;DHT22;48368;53.406;6.214;2023-06-10T11:37:44;20.90;99.90
62339;DHT22;48368;53.406;6.214;2023-06-10T11:40:11;20.60;99.90
62339;DHT22;48368;53.406;6.214;2023-06-10T11:42:40;20.50;99.90
62339;DHT22;48368;53.406;6.214;2023-06-10T11:45:07;20.40;99.90
62339;DHT22;48368;53.406;6.214;2023-06-10T11:47:33;20.40;99.90
62339;DHT22;48368;53.406;6.214;2023-06-10T11:49:59;20.10;99.90
62339;DHT22;48368;53.406;6.214;2023-06-10T11:52:31;20.10;99.90
62339;DHT22;48368;53.406;6.214;2023-06-10T11:54:59;19.90;99.90
62339;DHT22;48368;53.406;6.214;2023-06-10T11:57:24;20.00;99.90
62339;DHT22;48368;53.406;6.214;2023-06-10T11:59:50;20.30;99.90
62339;DHT22;48368;53.406;6.214;2023-06-10T12:02:16;20.30;99.90
62339;DHT22;48368;53.406;6.214;2023-06-10T12:04:42;20.60;99.90
62339;DHT22;48368;53.406;6.214;2023-06-10T12:07:08;20.90;99.90
62339;DHT22;48368;53.406;6.214;2023-06-10T12:09:33;20.60;99.90
62339;DHT22;48368;53.406;6.214;2023-06-10T12:12:04;20.80;99.90
62339;DHT22;48368;53.406;6.214;2023-06-10T12:14:59;20.80;99.90
62339;DHT22;48368;53.406;6.214;2023-06-10T12:20:00;20.90;99.90
62339;DHT22;48368;53.406;6.214;2023-06-10T12:22:26;20.80;99.90
62339;DHT22;48368;53.406;6.214;2023-06-10T12:25:00;20.70;99.90
62339;DHT22;48368;53.406;6.214;2023-06-10T12:27:27;20.50;99.90
62339;DHT22;48368;53.406;6.214;2023-06-10T12:29:56;20.50;99.90
62339;DHT22;48368;53.406;6.214;2023-06-10T12:32:42;20.60;99.90
62339;DHT22;48368;53.406;6.214;2023-06-10T12:35:09;20.90;99.90
62339;DHT22;48368;53.406;6.214;2023-06-10T12:37:35;20.60;99.90
62339;DHT22;48368;53.406;6.214;2023-06-10T12:40:05;20.50;99.90
62339;DHT22;48368;53.406;6.214;2023-06-10T12:42:32;20.60;99.90
62339;DHT22;48368;53.406;6.214;2023-06-10T12:45:01;20.50;99.90
62339;DHT22;48368;53.406;6.214;2023-06-10T12:47:32;20.30;99.90
62339;DHT22;48368;53.406;6.214;2023-06-10T12:50:00;20.50;99.90
62339;DHT22;48368;53.406;6.214;2023-06-10T12:52:26;20.60;99.90
62339;DHT22;48368;53.406;6.214;2023-06-10T12:54:52;20.50;99.90
62339;DHT22;48368;53.406;6.214;2023-06-10T12:57:18;20.40;99.90
62339;DHT22;48368;53.406;6.214;2023-06-10T12:59:43;20.50;99.90
62339;DHT22;48368;53.406;6.214;2023-06-10T13:02:20;20.60;99.90
62339;DHT22;48368;53.406;6.214;2023-06-10T13:04:48;20.60;99.90
62339;DHT22;48368;53.406;6.214;2023-06-10T13:07:15;20.20;99.90
62339;DHT22;48368;53.406;6.214;2023-06-10T13:09:41;20.20;99.90
62339;DHT22;48368;53.406;6.214;2023-06-10T13:12:08;20.30;99.90
62339;DHT22;48368;53.406;6.214;2023-06-10T13:14:33;20.50;99.90
62339;DHT22;48368;53.406;6.214;2023-06-10T13:16:59;20.50;99.90
62339;DHT22;48368;53.406;6.214;2023-06-10T13:19:25;20.80;99.90
62339;DHT22;48368;53.406;6.214;2023-06-10T13:21:52;20.50;99.90
62339;DHT22;48368;53.406;6.214;2023-06-10T13:24:17;20.40;99.90
62339;DHT22;48368;53.406;6.214;2023-06-10T13:26:44;20.50;99.90
62339;DHT22;48368;53.406;6.214;2023-06-10T13:29:12;20.40;99.90
62339;DHT22;48368;53.406;6.214;2023-06-10T13:31:40;20.70;99.90
62339;DHT22;48368;53.406;6.214;2023-06-10T13:34:06;20.50;99.90
62339;DHT22;48368;53.406;6.214;2023-06-10T13:36:32;20.50;99.90
62339;DHT22;48368;53.406;6.214;2023-06-10T13:38:57;20.50;99.90
62339;DHT22;48368;53.406;6.214;2023-06-10T13:41:23;20.70;99.90
62339;DHT22;48368;53.406;6.214;2023-06-10T13:43:49;21.10;99.90
62339;DHT22;48368;53.406;6.214;2023-06-10T13:46:15;20.90;99.90
62339;DHT22;48368;53.406;6.214;2023-06-10T13:48:41;20.90;99.90
62339;DHT22;48368;53.406;6.214;2023-06-10T13:51:07;20.90;99.90
62339;DHT22;48368;53.406;6.214;2023-06-10T13:53:34;20.80;99.90
62339;DHT22;48368;53.406;6.214;2023-06-10T13:56:00;20.80;99.90
62339;DHT22;48368;53.406;6.214;2023-06-10T13:58:26;20.80;99.90
62339;DHT22;48368;53.406;6.214;2023-06-10T14:00:52;21.00;99.90
62339;DHT22;48368;53.406;6.214;2023-06-10T14:03:17;20.90;99.90
62339;DHT22;48368;53.406;6.214;2023-06-10T14:05:43;21.00;99.90
62339;DHT22;48368;53.406;6.214;2023-06-10T14:08:09;20.80;99.90
62339;DHT22;48368;53.406;6.214;2023-06-10T14:10:34;20.90;99.90
62339;DHT22;48368;53.406;6.214;2023-06-10T14:13:00;20.80;99.90
62339;DHT22;48368;53.406;6.214;2023-06-10T14:15:26;20.70;99.90
62339;DHT22;48368;53.406;6.214;2023-06-10T14:17:51;20.90;99.90
62339;DHT22;48368;53.406;6.214;2023-06-10T14:20:17;20.50;99.90
62339;DHT22;48368;53.406;6.214;2023-06-10T14:22:43;20.10;99.90
62339;DHT22;48368;53.406;6.214;2023-06-10T14:25:08;20.50;99.90
62339;DHT22;48368;53.406;6.214;2023-06-10T14:27:34;20.30;99.90
62339;DHT22;48368;53.406;6.214;2023-06-10T14:30:00;20.20;99.90
62339;DHT22;48368;53.406;6.214;2023-06-10T14:32:25;20.30;99.90
62339;DHT22;48368;53.406;6.214;2023-06-10T14:34:51;20.20;99.90
62339;DHT22;48368;53.406;6.214;2023-06-10T14:37:17;20.20;99.90
62339;DHT22;48368;53.406;6.214;2023-06-10T14:39:42;20.30;99.90
62339;DHT22;48368;53.406;6.214;2023-06-10T14:42:08;20.20;99.90
62339;DHT22;48368;53.406;6.214;2023-06-10T14:44:34;20.30;99.90
62339;DHT22;48368;53.406;6.214;2023-06-10T14:46:59;20.30;99.90
62339;DHT22;48368;53.406;6.214;2023-06-10T14:49:25;20.00;99.90
62339;DHT22;48368;53.406;6.214;2023-06-10T14:51:51;20.00;99.90
62339;DHT22;48368;53.406;6.214;2023-06-10T14:54:16;20.10;99.90
62339;DHT22;48368;53.406;6.214;2023-06-10T14:56:42;20.30;99.90
62339;DHT22;48368;53.406;6.214;2023-06-10T14:59:08;20.40;99.90
62339;DHT22;48368;53.406;6.214;2023-06-10T15:01:34;20.50;99.90
62339;DHT22;48368;53.406;6.214;2023-06-10T15:03:59;20.10;99.90
62339;DHT22;48368;53.406;6.214;2023-06-10T15:06:25;20.30;99.90
62339;DHT22;48368;53.406;6.214;2023-06-10T15:08:51;20.60;99.90
62339;DHT22;48368;53.406;6.214;2023-06-10T15:11:17;20.60;99.90
62339;DHT22;48368;53.406;6.214;2023-06-10T15:13:42;20.50;99.90
62339;DHT22;48368;53.406;6.214;2023-06-10T15:16:08;20.40;99.90
62339;DHT22;48368;53.406;6.214;2023-06-10T15:18:34;20.30;99.90
62339;DHT22;48368;53.406;6.214;2023-06-10T15:21:00;20.20;99.90
62339;DHT22;48368;53.406;6.214;2023-06-10T15:23:25;20.20;99.90
62339;DHT22;48368;53.406;6.214;2023-06-10T15:25:51;20.10;99.90
62339;DHT22;48368;53.406;6.214;2023-06-10T15:28:17;20.10;99.90
62339;DHT22;48368;53.406;6.214;2023-06-10T15:30:43;20.20;99.90
62339;DHT22;48368;53.406;6.214;2023-06-10T15:33:08;20.40;99.90
62339;DHT22;48368;53.406;6.214;2023-06-10T15:35:34;20.50;99.90
62339;DHT22;48368;53.406;6.214;2023-06-10T15:37:59;20.30;99.90